Time;durP1;ratioP1;P1;durP2;ratioP2;P2;SDS_P1;SDS_P2;PMS_P1;PMS_P2;Temp;Humidity;BMP_temperature;BMP_pressure;BME280_temperature;BME280_humidity;BME280_pressure;Samples;Min_cycle;Max_cycle;Signal;HPM_P1;HPM_P2
2022/07/13 00:01:35;;;;;;;0.90;0.90;;;24.00;67.10;;;;;;5066279;28;43884;-69
2022/07/13 00:04:04;;;;;;;0.70;0.70;;;24.10;66.70;;;;;;5066408;28;43980;-69
2022/07/13 00:06:33;;;;;;;0.90;0.90;;;24.20;66.50;;;;;;5066472;28;43883;-70
2022/07/13 00:09:01;;;;;;;0.80;0.80;;;24.30;66.20;;;;;;5066491;28;44096;-69
2022/07/13 00:11:29;;;;;;;0.90;0.90;;;24.20;66.30;;;;;;5066259;28;43968;-69
2022/07/13 00:13:57;;;;;;;0.70;0.70;;;24.10;66.50;;;;;;5066515;28;43911;-70
2022/07/13 00:16:25;;;;;;;0.80;0.80;;;23.90;66.80;;;;;;5066053;28;43955;-70
2022/07/13 00:18:53;;;;;;;0.80;0.80;;;23.70;67.20;;;;;;5066137;28;43933;-69
2022/07/13 00:21:21;;;;;;;0.70;0.70;;;23.60;67.60;;;;;;5065904;28;43999;-69
2022/07/13 00:23:50;;;;;;;0.70;0.70;;;23.50;68.00;;;;;;5065119;28;43955;-69
2022/07/13 00:26:18;;;;;;;0.73;0.73;;;23.30;68.20;;;;;;5065979;28;44074;-69
2022/07/13 00:28:46;;;;;;;0.70;0.70;;;23.30;68.50;;;;;;5065726;28;43825;-70
2022/07/13 00:31:14;;;;;;;0.80;0.80;;;23.20;68.70;;;;;;5066020;28;43809;-69
2022/07/13 00:33:42;;;;;;;1.00;1.00;;;23.20;68.90;;;;;;5066104;28;44195;-71
2022/07/13 00:36:10;;;;;;;0.80;0.80;;;23.10;69.00;;;;;;5065654;28;44713;-70
2022/07/13 00:38:38;;;;;;;0.70;0.70;;;23.10;69.20;;;;;;5065896;28;43956;-70
2022/07/13 00:41:08;;;;;;;0.80;0.80;;;23.10;69.30;;;;;;5064220;28;44016;-70
2022/07/13 00:43:35;;;;;;;0.80;0.80;;;23.00;69.20;;;;;;5065884;28;43984;-70
2022/07/13 00:46:04;;;;;;;0.80;0.80;;;23.00;69.30;;;;;;5064329;28;45832;-69
2022/07/13 00:48:32;;;;;;;0.80;0.80;;;23.00;69.30;;;;;;5069072;28;43950;-70
2022/07/13 00:51:01;;;;;;;0.80;0.80;;;23.00;70.00;;;;;;5069498;28;43964;-70
2022/07/13 00:53:29;;;;;;;0.90;0.90;;;23.00;70.20;;;;;;5068018;28;43975;-70
2022/07/13 00:55:57;;;;;;;0.90;0.90;;;23.10;70.10;;;;;;5068943;28;43842;-70
2022/07/13 00:58:26;;;;;;;0.90;0.90;;;23.20;69.70;;;;;;5068896;28;43864;-70
2022/07/13 01:00:55;;;;;;;0.77;0.77;;;23.30;69.40;;;;;;5069386;28;43874;-70
2022/07/13 01:03:23;;;;;;;0.87;0.87;;;23.50;69.00;;;;;;5067434;28;43992;-70
2022/07/13 01:05:52;;;;;;;0.70;0.70;;;23.60;68.70;;;;;;5068854;28;44040;-70
2022/07/13 01:08:21;;;;;;;0.70;0.70;;;23.70;68.30;;;;;;5067261;28;44591;-70
2022/07/13 01:10:49;;;;;;;0.60;0.60;;;23.80;68.60;;;;;;5069007;28;43939;-69
2022/07/13 01:13:17;;;;;;;0.90;0.90;;;24.00;67.50;;;;;;5068873;28;43406;-69
2022/07/13 01:15:46;;;;;;;0.80;0.80;;;24.10;67.00;;;;;;5068751;28;44792;-69
2022/07/13 01:18:14;;;;;;;0.80;0.80;;;24.20;66.60;;;;;;5066825;28;43892;-69
2022/07/13 01:20:43;;;;;;;0.73;0.73;;;24.30;66.30;;;;;;5068708;28;43971;-70
2022/07/13 01:23:12;;;;;;;0.73;0.73;;;24.40;65.90;;;;;;5067155;28;44102;-70
2022/07/13 01:25:41;;;;;;;0.87;0.87;;;24.30;66.70;;;;;;5068461;28;44003;-69
2022/07/13 01:28:09;;;;;;;0.90;0.90;;;24.20;66.20;;;;;;5068607;28;43833;-69
2022/07/13 01:30:37;;;;;;;0.80;0.80;;;24.10;66.60;;;;;;5068488;28;43829;-70
2022/07/13 01:33:05;;;;;;;0.70;0.70;;;23.90;66.90;;;;;;5068831;28;43952;-69
2022/07/13 01:35:33;;;;;;;0.90;0.90;;;23.70;67.30;;;;;;5067021;28;45324;-69
2022/07/13 01:38:01;;;;;;;0.80;0.80;;;23.50;67.60;;;;;;5067089;28;44524;-70
2022/07/13 01:40:30;;;;;;;0.87;0.87;;;23.40;68.00;;;;;;5067284;28;44574;-69
2022/07/13 01:42:58;;;;;;;0.90;0.90;;;23.30;68.30;;;;;;5066974;28;43419;-69
2022/07/13 01:45:26;;;;;;;0.60;0.60;;;23.30;68.60;;;;;;5068140;28;43856;-70
2022/07/13 01:47:55;;;;;;;0.90;0.90;;;23.20;68.80;;;;;;5066720;28;45114;-69
2022/07/13 01:50:27;;;;;;;0.90;0.90;;;23.20;69.00;;;;;;5066862;28;43790;-69
2022/07/13 01:52:58;;;;;;;0.80;0.80;;;23.10;69.00;;;;;;5067329;28;44016;-70
2022/07/13 01:55:28;;;;;;;0.80;0.80;;;23.10;69.20;;;;;;5066430;28;44138;-69
2022/07/13 01:57:59;;;;;;;0.80;0.80;;;23.10;69.30;;;;;;5066309;28;44490;-70
2022/07/13 02:00:27;;;;;;;0.60;0.60;;;23.10;69.40;;;;;;5066220;28;43848;-70
2022/07/13 02:02:55;;;;;;;0.73;0.73;;;23.10;69.50;;;;;;5068360;28;43868;-68
2022/07/13 02:05:26;;;;;;;0.77;0.77;;;23.00;69.40;;;;;;5065899;28;45916;-69
2022/07/13 02:07:55;;;;;;;0.80;0.80;;;23.00;69.50;;;;;;5066219;28;46070;-70
2022/07/13 02:10:34;;;;;;;1.00;1.00;;;23.00;70.40;;;;;;5066507;28;43993;-69
2022/07/13 02:13:05;;;;;;;0.70;0.70;;;23.00;70.30;;;;;;5067109;28;44009;-70
2022/07/13 02:15:35;;;;;;;0.80;0.80;;;23.10;70.10;;;;;;5066211;28;46064;-70
2022/07/13 02:18:04;;;;;;;0.80;0.80;;;23.30;69.80;;;;;;5066084;28;43951;-70
2022/07/13 02:20:33;;;;;;;0.90;0.90;;;23.40;69.30;;;;;;5067912;28;44010;-70
2022/07/13 02:23:01;;;;;;;0.73;0.73;;;23.60;68.90;;;;;;5066737;28;43782;-69
2022/07/13 02:25:29;;;;;;;0.90;0.90;;;23.70;68.50;;;;;;5067853;28;43967;-70
2022/07/13 02:27:57;;;;;;;0.80;0.80;;;23.80;68.10;;;;;;5067518;28;43964;-70
2022/07/13 02:30:26;;;;;;;0.77;0.77;;;24.00;67.70;;;;;;5066199;28;43916;-69
2022/07/13 02:32:56;;;;;;;0.70;0.70;;;24.10;67.30;;;;;;5066430;28;44059;-70
2022/07/13 02:35:25;;;;;;;0.90;0.90;;;24.20;66.90;;;;;;5065643;28;45495;-70
2022/07/13 02:37:53;;;;;;;1.00;1.00;;;24.30;66.50;;;;;;5066311;28;45090;-70
2022/07/13 02:40:21;;;;;;;0.80;0.80;;;24.30;66.40;;;;;;5065827;28;43392;-69
2022/07/13 02:42:49;;;;;;;0.90;0.90;;;24.10;66.50;;;;;;5067738;28;43748;-70
2022/07/13 02:45:17;;;;;;;0.93;0.93;;;24.00;66.70;;;;;;5065660;28;45962;-69
2022/07/13 02:47:47;;;;;;;0.90;0.90;;;23.90;67.00;;;;;;5067159;28;43976;-70
2022/07/13 02:50:15;;;;;;;0.90;0.90;;;23.70;67.40;;;;;;5067273;28;44000;-71
2022/07/13 02:52:43;;;;;;;0.80;0.80;;;23.50;67.70;;;;;;5066094;28;44121;-69
2022/07/13 02:55:11;;;;;;;0.87;0.87;;;23.40;68.10;;;;;;5066773;28;44013;-69
2022/07/13 02:57:40;;;;;;;0.70;0.70;;;23.30;68.40;;;;;;5065605;28;43766;-69
2022/07/13 03:00:10;;;;;;;1.00;1.00;;;23.20;68.60;;;;;;5065604;28;43382;-69
2022/07/13 03:02:38;;;;;;;0.80;0.80;;;23.20;68.90;;;;;;5065995;28;43450;-70
2022/07/13 03:05:12;;;;;;;0.80;0.80;;;23.10;69.00;;;;;;5064865;28;44031;-69
2022/07/13 03:07:40;;;;;;;0.80;0.80;;;23.10;69.20;;;;;;5065439;28;45025;-70
2022/07/13 03:10:09;;;;;;;0.80;0.80;;;23.10;69.30;;;;;;5064733;28;43904;-70
2022/07/13 03:12:40;;;;;;;0.80;0.80;;;23.10;69.40;;;;;;5065663;28;43964;-69
2022/07/13 03:15:09;;;;;;;0.80;0.80;;;23.00;69.40;;;;;;5066598;28;43961;-71
2022/07/13 03:17:37;;;;;;;0.77;0.77;;;23.00;69.50;;;;;;5065322;28;44843;-70
2022/07/13 03:20:09;;;;;;;0.93;0.90;;;23.00;70.10;;;;;;5065468;28;43333;-70
2022/07/13 03:22:39;;;;;;;0.80;0.80;;;23.00;70.60;;;;;;5065496;28;44023;-69
2022/07/13 03:25:08;;;;;;;0.70;0.70;;;23.10;70.40;;;;;;5065057;28;45948;-70
2022/07/13 03:27:36;;;;;;;0.90;0.90;;;23.20;70.20;;;;;;5065169;28;45148;-69
2022/07/13 03:30:07;;;;;;;0.70;0.70;;;23.30;69.70;;;;;;5065179;28;43866;-69
2022/07/13 03:32:35;;;;;;;0.90;0.90;;;23.40;69.30;;;;;;5067044;28;43981;-69
2022/07/13 03:35:03;;;;;;;0.80;0.80;;;23.60;68.90;;;;;;5065360;28;45424;-70
2022/07/13 03:37:32;;;;;;;0.80;0.80;;;23.70;68.50;;;;;;5065209;28;43945;-69
2022/07/13 03:40:01;;;;;;;0.77;0.77;;;23.80;68.10;;;;;;5066581;28;44070;-70
2022/07/13 03:42:29;;;;;;;0.90;0.90;;;24.00;68.60;;;;;;5060002;28;44027;-69
2022/07/13 03:44:58;;;;;;;0.70;0.70;;;24.10;67.40;;;;;;5045106;28;46924;-69
2022/07/13 03:47:26;;;;;;;0.70;0.70;;;24.20;67.00;;;;;;5045466;28;44958;-69
2022/07/13 03:49:54;;;;;;;0.80;0.80;;;24.30;66.60;;;;;;5045395;28;43994;-70
2022/07/13 03:52:22;;;;;;;0.80;0.80;;;24.40;66.20;;;;;;5066714;28;43807;-69
2022/07/13 03:54:50;;;;;;;0.87;0.87;;;24.40;66.00;;;;;;5066492;28;43964;-70
2022/07/13 03:57:21;;;;;;;0.87;0.80;;;24.20;65.90;;;;;;5065028;28;43899;-69
2022/07/13 03:59:49;;;;;;;1.83;0.83;;;24.00;66.30;;;;;;5060079;28;44065;-70
2022/07/13 04:02:17;;;;;;;1.00;1.00;;;23.90;66.90;;;;;;5060229;28;44031;-70
2022/07/13 04:04:46;;;;;;;1.13;0.97;;;23.70;67.40;;;;;;5057772;28;44954;-69
2022/07/13 04:07:14;;;;;;;1.20;1.10;;;23.60;67.80;;;;;;5058414;28;44110;-70
2022/07/13 04:09:42;;;;;;;1.33;1.30;;;23.50;68.10;;;;;;5058519;28;43426;-69
2022/07/13 04:12:11;;;;;;;1.90;1.80;;;23.40;68.40;;;;;;5058706;28;43590;-69
2022/07/13 04:14:40;;;;;;;3.50;1.87;;;23.30;68.60;;;;;;5058135;28;44073;-69
2022/07/13 04:17:09;;;;;;;1.93;1.83;;;23.30;68.80;;;;;;5064810;28;44046;-69
2022/07/13 04:19:38;;;;;;;3.27;2.10;;;23.30;69.00;;;;;;5064963;28;43354;-69
2022/07/13 04:22:06;;;;;;;6.37;2.50;;;23.20;69.10;;;;;;5066143;28;43996;-70
2022/07/13 04:24:38;;;;;;;2.43;2.23;;;23.20;69.20;;;;;;5067880;28;45393;-69
2022/07/13 04:27:06;;;;;;;3.10;2.20;;;23.10;69.20;;;;;;5068087;28;44928;-70
2022/07/13 04:29:34;;;;;;;3.47;2.57;;;23.10;69.30;;;;;;5069807;28;43975;-70
2022/07/13 04:32:06;;;;;;;3.10;2.80;;;23.10;69.30;;;;;;5068505;28;44047;-69
2022/07/13 04:34:34;;;;;;;4.07;2.70;;;23.10;69.40;;;;;;5067906;28;46844;-70
2022/07/13 04:37:03;;;;;;;2.63;2.43;;;23.10;69.50;;;;;;5068120;28;44815;-69
2022/07/13 04:39:31;;;;;;;4.83;3.13;;;23.10;69.80;;;;;;5068211;28;43442;-69
2022/07/13 04:42:00;;;;;;;5.00;3.40;;;23.10;70.20;;;;;;5070111;28;43820;-69
2022/07/13 04:44:29;;;;;;;4.63;2.97;;;23.10;69.90;;;;;;5067914;28;43972;-70
2022/07/13 04:46:57;;;;;;;5.80;2.80;;;23.20;69.70;;;;;;5067897;28;44820;-70
2022/07/13 04:49:27;;;;;;;3.13;2.87;;;23.40;69.50;;;;;;5067994;28;44286;-70
2022/07/13 04:51:56;;;;;;;6.03;2.93;;;23.50;69.10;;;;;;5068045;28;44007;-70
2022/07/13 04:54:24;;;;;;;4.27;3.07;;;23.60;68.70;;;;;;5067832;28;43929;-69
2022/07/13 04:56:52;;;;;;;5.17;3.20;;;23.70;68.30;;;;;;5067749;28;43868;-69
2022/07/13 04:59:20;;;;;;;2.97;2.77;;;23.90;68.10;;;;;;5067795;28;44077;-69
2022/07/13 05:01:48;;;;;;;3.43;3.10;;;24.00;68.50;;;;;;5069515;28;43944;-70
2022/07/13 05:04:17;;;;;;;3.97;3.13;;;24.10;67.40;;;;;;5067105;28;43819;-69
2022/07/13 05:06:46;;;;;;;3.70;3.30;;;24.20;67.20;;;;;;5069046;28;43955;-70
2022/07/13 05:09:14;;;;;;;3.40;3.10;;;24.30;66.80;;;;;;5067498;28;44079;-69
2022/07/13 05:11:42;;;;;;;5.03;3.20;;;24.20;66.80;;;;;;5067932;28;43589;-69
2022/07/13 05:14:11;;;;;;;3.30;2.87;;;24.10;67.10;;;;;;5067504;28;45346;-70
2022/07/13 05:16:39;;;;;;;3.47;2.93;;;24.00;67.40;;;;;;5067265;28;45863;-69
2022/07/13 05:19:10;;;;;;;3.10;2.80;;;23.80;67.60;;;;;;5067267;28;43938;-69
2022/07/13 05:21:40;;;;;;;3.40;3.10;;;23.70;68.00;;;;;;5067776;28;43997;-70
2022/07/13 05:24:09;;;;;;;3.07;2.80;;;23.50;68.10;;;;;;5067116;28;43973;-70
2022/07/13 05:26:38;;;;;;;3.23;2.97;;;23.40;68.40;;;;;;5067087;28;44750;-69
2022/07/13 05:29:07;;;;;;;4.57;3.10;;;23.40;68.70;;;;;;5068930;28;43890;-69
2022/07/13 05:31:37;;;;;;;3.37;2.57;;;23.30;69.00;;;;;;5067556;28;44075;-69
2022/07/13 05:34:06;;;;;;;2.70;2.60;;;23.30;69.10;;;;;;5065985;28;46670;-69
2022/07/13 05:36:37;;;;;;;3.50;3.20;;;23.20;69.20;;;;;;5066838;28;44034;-70
2022/07/13 05:39:06;;;;;;;2.80;2.60;;;23.20;69.40;;;;;;5067124;28;44016;-69
2022/07/13 05:41:35;;;;;;;3.03;2.80;;;23.10;69.40;;;;;;5067195;28;43988;-68
2022/07/13 05:44:04;;;;;;;3.73;2.87;;;23.10;69.50;;;;;;5066827;28;45678;-70
2022/07/13 05:46:32;;;;;;;3.20;2.90;;;23.10;69.60;;;;;;5066947;28;43864;-69
2022/07/13 05:49:01;;;;;;;3.20;2.90;;;23.10;70.30;;;;;;5067082;28;44017;-70
2022/07/13 05:51:29;;;;;;;3.03;2.83;;;23.10;70.60;;;;;;5068918;28;43470;-69
2022/07/13 05:54:04;;;;;;;2.63;2.50;;;23.20;70.50;;;;;;5066935;28;45656;-70
2022/07/13 05:56:54;;;;;;;2.90;2.70;;;23.30;70.20;;;;;;5064409;28;43848;-70
2022/07/13 05:59:22;;;;;;;2.60;2.40;;;23.40;69.70;;;;;;5068342;28;43920;-70
2022/07/13 06:01:50;;;;;;;3.00;2.70;;;23.50;69.30;;;;;;5068708;28;44022;-70
2022/07/13 06:04:18;;;;;;;2.83;2.63;;;23.70;69.10;;;;;;5067975;28;43958;-70
2022/07/13 06:06:47;;;;;;;3.10;2.80;;;23.80;68.70;;;;;;5066362;28;45199;-69
2022/07/13 06:09:14;;;;;;;2.90;2.70;;;23.90;68.40;;;;;;5067933;28;43921;-69
2022/07/13 06:11:43;;;;;;;2.87;2.67;;;24.00;68.00;;;;;;5068499;28;43858;-69
2022/07/13 06:14:12;;;;;;;2.83;2.63;;;24.10;67.60;;;;;;5067868;28;44018;-69
2022/07/13 06:16:40;;;;;;;2.80;2.40;;;24.20;67.30;;;;;;5067575;28;43952;-70
2022/07/13 06:19:08;;;;;;;2.80;2.60;;;24.30;66.90;;;;;;5068127;28;43918;-70
2022/07/13 06:21:36;;;;;;;2.77;2.60;;;24.30;66.80;;;;;;5068324;28;44356;-69
2022/07/13 06:24:05;;;;;;;2.40;2.30;;;24.20;67.00;;;;;;5067979;28;44878;-70
2022/07/13 06:26:33;;;;;;;2.33;2.23;;;24.00;67.40;;;;;;5067841;28;43737;-70
2022/07/13 06:29:01;;;;;;;3.20;2.80;;;23.90;67.60;;;;;;5068154;28;43892;-69
2022/07/13 06:31:30;;;;;;;2.30;2.20;;;23.70;67.90;;;;;;5068104;28;43982;-70
2022/07/13 06:33:58;;;;;;;2.40;2.30;;;23.60;68.20;;;;;;5067484;28;44033;-70
2022/07/13 06:36:26;;;;;;;2.13;2.03;;;23.50;68.60;;;;;;5067388;28;44014;-69
2022/07/13 06:38:54;;;;;;;2.30;2.20;;;23.40;68.90;;;;;;5067427;28;43955;-69
2022/07/13 06:41:22;;;;;;;2.17;2.07;;;23.30;69.10;;;;;;5067512;28;44012;-70
2022/07/13 06:43:50;;;;;;;2.43;2.33;;;23.20;69.30;;;;;;5065965;28;46456;-70
2022/07/13 06:46:19;;;;;;;2.47;2.20;;;23.20;69.40;;;;;;5067092;28;44050;-69
2022/07/13 06:48:54;;;;;;;2.40;2.30;;;23.20;69.60;;;;;;5067586;28;43974;-69
2022/07/13 06:51:23;;;;;;;2.30;2.20;;;23.10;69.70;;;;;;5067754;28;44251;-70
2022/07/13 06:53:51;;;;;;;2.23;2.13;;;23.10;69.80;;;;;;5067426;28;43824;-69
2022/07/13 06:56:19;;;;;;;2.20;2.10;;;23.10;70.60;;;;;;5066943;28;44023;-70
2022/07/13 06:58:47;;;;;;;1.90;1.87;;;23.10;69.90;;;;;;5067532;28;43876;-69
2022/07/13 07:01:15;;;;;;;2.37;2.27;;;23.10;70.00;;;;;;5066104;28;43929;-69
2022/07/13 07:03:43;;;;;;;2.07;1.97;;;23.10;70.00;;;;;;5067057;28;43614;-70
2022/07/13 07:06:12;;;;;;;1.90;1.90;;;23.10;70.00;;;;;;5066863;28;44093;-71
2022/07/13 07:08:40;;;;;;;2.13;2.03;;;23.00;70.10;;;;;;5067331;28;43845;-69
2022/07/13 07:11:08;;;;;;;2.30;2.20;;;23.10;70.90;;;;;;5067605;28;43898;-69
2022/07/13 07:13:36;;;;;;;2.40;2.30;;;23.10;70.80;;;;;;5067109;28;44133;-70
2022/07/13 07:16:04;;;;;;;2.43;2.33;;;23.20;70.40;;;;;;5065651;28;43940;-69
2022/07/13 07:18:33;;;;;;;2.17;2.07;;;23.40;70.00;;;;;;5067308;28;43983;-69
2022/07/13 07:21:01;;;;;;;2.40;2.30;;;23.50;69.70;;;;;;5067603;28;44002;-70
2022/07/13 07:23:30;;;;;;;1.90;1.80;;;23.60;69.20;;;;;;5066914;28;43931;-69
2022/07/13 07:25:58;;;;;;;2.37;2.23;;;23.70;68.90;;;;;;5066919;28;43392;-68
2022/07/13 07:28:26;;;;;;;1.80;1.80;;;23.90;68.60;;;;;;5066928;28;43877;-70
2022/07/13 07:30:54;;;;;;;1.97;1.90;;;23.90;68.20;;;;;;5067116;28;43411;-69
2022/07/13 07:33:22;;;;;;;1.70;1.70;;;24.10;67.90;;;;;;5066839;28;43979;-69
2022/07/13 07:35:50;;;;;;;2.10;2.00;;;24.10;67.50;;;;;;5065400;28;44353;-69
2022/07/13 07:38:18;;;;;;;2.00;2.00;;;24.10;67.30;;;;;;5066635;28;44062;-69
2022/07/13 07:40:48;;;;;;;2.17;2.07;;;24.00;67.60;;;;;;5067069;28;43832;-70
2022/07/13 07:43:16;;;;;;;1.77;1.77;;;23.90;67.90;;;;;;5066639;28;44021;-69
2022/07/13 07:45:44;;;;;;;2.10;2.00;;;23.70;68.80;;;;;;5066383;28;43794;-69
2022/07/13 07:48:12;;;;;;;1.80;1.70;;;23.60;68.30;;;;;;5066702;28;43961;-69
2022/07/13 07:50:40;;;;;;;2.00;1.90;;;23.50;68.60;;;;;;5067143;28;44001;-69
2022/07/13 07:53:08;;;;;;;1.90;1.80;;;23.40;68.90;;;;;;5066348;28;43955;-70
2022/07/13 07:55:37;;;;;;;1.90;1.80;;;23.30;69.10;;;;;;5066497;28;43947;-70
2022/07/13 07:58:08;;;;;;;1.77;1.70;;;23.20;69.30;;;;;;5069358;28;43489;-69
2022/07/13 08:00:37;;;;;;;1.60;1.60;;;23.20;69.50;;;;;;5070686;28;43905;-70
2022/07/13 08:03:06;;;;;;;1.87;1.77;;;23.20;69.60;;;;;;5070004;28;44021;-69
2022/07/13 08:05:34;;;;;;;1.70;1.70;;;23.10;69.60;;;;;;5070164;28;43924;-70
2022/07/13 08:08:02;;;;;;;1.50;1.50;;;23.10;69.80;;;;;;5063470;28;43928;-71
2022/07/13 08:10:30;;;;;;;2.13;2.03;;;23.10;69.90;;;;;;5070517;28;44008;-70
2022/07/13 08:13:00;;;;;;;1.73;1.73;;;23.10;69.90;;;;;;5063256;28;43910;-68
2022/07/13 08:15:29;;;;;;;1.70;1.70;;;23.00;70.50;;;;;;5063471;28;44113;-69
2022/07/13 08:17:57;;;;;;;1.50;1.50;;;23.10;70.90;;;;;;5069945;28;44011;-69
2022/07/13 08:20:26;;;;;;;1.60;1.60;;;23.10;70.70;;;;;;5068801;28;44012;-69
2022/07/13 08:22:54;;;;;;;1.70;1.70;;;23.20;70.40;;;;;;5068000;28;46047;-70
2022/07/13 08:25:23;;;;;;;1.50;1.50;;;23.30;70.00;;;;;;5068101;28;44983;-69
2022/07/13 08:27:51;;;;;;;1.73;1.73;;;23.50;69.60;;;;;;5069681;28;43845;-70
2022/07/13 08:30:19;;;;;;;1.80;1.80;;;23.60;69.20;;;;;;5070080;28;44011;-69
2022/07/13 08:32:49;;;;;;;1.57;1.57;;;23.70;68.80;;;;;;5069720;28;43601;-69
2022/07/13 08:41:15;;;;;;;1.60;1.60;;;24.00;67.70;;;;;;5090012;27;44005;-69
2022/07/13 08:43:43;;;;;;;1.50;1.50;;;24.10;67.30;;;;;;5103887;27;43828;-70
2022/07/13 08:46:11;;;;;;;1.50;1.50;;;24.20;67.10;;;;;;5103898;27;43993;-69
2022/07/13 08:48:39;;;;;;;1.70;1.60;;;24.20;67.10;;;;;;5104356;27;43988;-69
2022/07/13 08:51:07;;;;;;;1.50;1.50;;;24.10;67.40;;;;;;5103603;27;43946;-69
2022/07/13 08:53:35;;;;;;;1.40;1.40;;;23.90;67.70;;;;;;5103747;27;43423;-69
2022/07/13 08:56:03;;;;;;;1.60;1.60;;;23.70;67.80;;;;;;5103916;27;44118;-69
2022/07/13 08:58:33;;;;;;;1.80;1.70;;;23.60;68.00;;;;;;5104274;27;43953;-69
2022/07/13 09:01:01;;;;;;;1.33;1.33;;;23.50;68.30;;;;;;5093166;27;45928;-70
2022/07/13 09:03:33;;;;;;;1.50;1.50;;;23.50;68.60;;;;;;5086774;27;43951;-69
2022/07/13 09:06:01;;;;;;;1.50;1.50;;;23.40;68.80;;;;;;5103880;27;44063;-70
2022/07/13 09:08:29;;;;;;;1.50;1.50;;;23.30;69.00;;;;;;5103995;27;43853;-69
2022/07/13 09:10:58;;;;;;;1.60;1.60;;;23.30;69.20;;;;;;5103203;27;43946;-70
2022/07/13 09:13:38;;;;;;;1.50;1.50;;;23.30;69.40;;;;;;5103568;27;43854;-69
2022/07/13 09:16:16;;;;;;;1.50;1.50;;;23.20;69.40;;;;;;5101929;27;43928;-69
2022/07/13 09:18:44;;;;;;;1.27;1.27;;;23.20;69.60;;;;;;5104314;27;43454;-70
2022/07/13 09:21:13;;;;;;;1.37;1.37;;;23.20;69.70;;;;;;5076864;27;43907;-69
2022/07/13 09:23:41;;;;;;;1.53;1.53;;;23.10;69.70;;;;;;5082057;27;43949;-69
2022/07/13 09:26:09;;;;;;;1.47;1.47;;;23.20;69.80;;;;;;5076834;27;43758;-69
2022/07/13 09:28:45;;;;;;;1.40;1.40;;;23.10;69.80;;;;;;5084270;27;44002;-69
2022/07/13 09:31:13;;;;;;;1.50;1.50;;;23.10;70.40;;;;;;5103199;27;44115;-69
2022/07/13 09:33:43;;;;;;;1.30;1.30;;;23.10;70.70;;;;;;5103329;27;44001;-69
2022/07/13 09:36:12;;;;;;;1.37;1.37;;;23.20;70.60;;;;;;5102980;27;43810;-69
2022/07/13 09:38:41;;;;;;;1.53;1.53;;;23.30;70.40;;;;;;5103548;27;43935;-69
2022/07/13 09:41:17;;;;;;;1.30;1.30;;;23.40;70.00;;;;;;5102133;27;44052;-69
2022/07/13 09:46:56;;;;;;;1.30;1.30;;;23.70;69.10;;;;;;5103159;27;43838;-70
2022/07/13 09:49:35;;;;;;;1.23;1.23;;;23.80;68.60;;;;;;5103526;27;43925;-69
2022/07/13 09:52:04;;;;;;;1.10;1.10;;;23.90;68.20;;;;;;5092232;27;43950;-69
2022/07/13 09:54:33;;;;;;;1.30;1.30;;;24.00;67.90;;;;;;5082318;28;43972;-70
2022/07/13 09:57:01;;;;;;;1.30;1.30;;;24.10;67.70;;;;;;5089369;27;43968;-69
2022/07/13 09:59:31;;;;;;;1.20;1.20;;;24.20;67.50;;;;;;5072625;28;43990;-69
2022/07/13 10:01:59;;;;;;;1.20;1.20;;;24.20;67.20;;;;;;5069217;28;44396;-69
2022/07/13 10:04:27;;;;;;;1.13;1.13;;;24.10;68.10;;;;;;5069545;28;43892;-71
2022/07/13 10:07:15;;;;;;;1.10;1.10;;;24.00;67.60;;;;;;5069225;28;44061;-69
2022/07/13 10:09:43;;;;;;;1.40;1.30;;;23.90;67.90;;;;;;5063496;28;43909;-69
2022/07/13 10:12:11;;;;;;;1.33;1.33;;;23.70;67.90;;;;;;5076298;28;44725;-70
2022/07/13 10:14:41;;;;;;;1.30;1.30;;;23.60;68.20;;;;;;5062642;28;44015;-70
2022/07/13 10:17:11;;;;;;;1.30;1.30;;;23.50;68.50;;;;;;5069397;28;43949;-70
2022/07/13 10:19:42;;;;;;;1.13;1.13;;;23.40;68.80;;;;;;5069693;28;44054;-69
2022/07/13 10:22:11;;;;;;;1.60;1.60;;;23.40;69.00;;;;;;5069136;28;43880;-69
2022/07/13 10:24:39;;;;;;;1.40;1.40;;;23.30;69.10;;;;;;5069938;28;43458;-69
2022/07/13 10:27:20;;;;;;;1.30;1.30;;;23.30;69.30;;;;;;5087478;27;43954;-70
2022/07/13 10:29:50;;;;;;;1.30;1.30;;;23.20;69.30;;;;;;5089140;27;43425;-68
2022/07/13 10:32:18;;;;;;;1.13;1.13;;;23.20;69.40;;;;;;5088721;27;44002;-69
2022/07/13 10:34:53;;;;;;;0.97;0.97;;;23.20;69.50;;;;;;5088535;28;43949;-70
2022/07/13 10:37:22;;;;;;;1.13;1.13;;;23.20;69.50;;;;;;5088385;28;43968;-69
2022/07/13 10:40:12;;;;;;;1.50;1.40;;;23.20;69.60;;;;;;5088097;28;43513;-70
2022/07/13 10:43:09;;;;;;;1.30;1.30;;;23.20;69.60;;;;;;5088139;27;44606;-69
2022/07/13 10:45:40;;;;;;;1.27;1.27;;;23.20;69.60;;;;;;5088472;27;43773;-69
2022/07/13 10:48:10;;;;;;;1.30;1.30;;;23.20;70.00;;;;;;5088187;28;43982;-69
2022/07/13 10:50:47;;;;;;;1.37;1.37;;;23.10;70.40;;;;;;5083793;28;43977;-69
2022/07/13 10:53:16;;;;;;;1.10;1.10;;;23.20;70.40;;;;;;5088435;28;44045;-70
2022/07/13 10:55:47;;;;;;;1.40;1.40;;;23.30;70.10;;;;;;5074017;28;45043;-68
2022/07/13 10:58:44;;;;;;;1.43;1.20;;;23.40;69.70;;;;;;5060021;28;43943;-69
2022/07/13 11:01:37;;;;;;;2.63;1.47;;;23.60;69.30;;;;;;5068830;28;43425;-69
2022/07/13 11:04:06;;;;;;;2.67;1.70;;;23.70;67.90;;;;;;5065854;28;46000;-69
2022/07/13 11:06:34;;;;;;;4.83;1.50;;;23.80;67.10;;;;;;5076193;28;43309;-69
2022/07/13 11:09:14;;;;;;;1.77;1.20;;;24.00;67.00;;;;;;5088051;28;43809;-69
2022/07/13 11:11:46;;;;;;;1.23;1.20;;;24.00;66.90;;;;;;5088358;28;43976;-69
2022/07/13 11:14:50;;;;;;;1.20;1.20;;;24.10;66.80;;;;;;5087871;27;44229;-69
2022/07/13 11:17:24;;;;;;;1.20;1.20;;;24.30;66.70;;;;;;5087854;27;44393;-71
2022/07/13 11:19:57;;;;;;;1.40;1.20;;;24.30;66.30;;;;;;5084186;28;44013;-70
2022/07/13 11:22:25;;;;;;;1.27;1.27;;;24.40;66.40;;;;;;5067155;28;43938;-69
2022/07/13 11:25:14;;;;;;;1.17;1.17;;;24.30;66.60;;;;;;5068146;28;43962;-70
2022/07/13 11:27:55;;;;;;;1.10;1.10;;;24.10;67.00;;;;;;5068031;28;43986;-69
2022/07/13 11:30:29;;;;;;;1.20;1.20;;;24.00;67.40;;;;;;5068298;28;43412;-70
2022/07/13 11:32:59;;;;;;;1.20;1.20;;;23.80;67.40;;;;;;5076929;28;43906;-70
2022/07/13 11:35:27;;;;;;;1.10;1.10;;;23.70;67.90;;;;;;5087556;28;43938;-70
2022/07/13 11:37:55;;;;;;;1.20;1.20;;;23.60;68.20;;;;;;5087665;28;44067;-70
2022/07/13 11:40:27;;;;;;;1.00;1.00;;;23.50;68.30;;;;;;5086968;27;43968;-69
2022/07/13 11:42:56;;;;;;;1.03;1.03;;;23.40;68.60;;;;;;5087927;28;43951;-69
2022/07/13 11:45:26;;;;;;;1.07;1.07;;;23.40;68.80;;;;;;5087012;27;43987;-69
2022/07/13 11:47:57;;;;;;;1.20;1.20;;;23.30;68.90;;;;;;5087305;27;44019;-69
2022/07/13 11:50:47;;;;;;;1.30;1.30;;;23.30;69.10;;;;;;5087426;28;43458;-69
2022/07/13 11:53:26;;;;;;;1.10;1.10;;;23.30;69.20;;;;;;5087931;27;43908;-69
2022/07/13 11:55:57;;;;;;;1.10;1.10;;;23.20;69.40;;;;;;5062970;28;43762;-70
2022/07/13 11:58:27;;;;;;;1.00;1.00;;;23.20;70.20;;;;;;5075991;28;43888;-69
2022/07/13 12:00:56;;;;;;;0.90;0.90;;;23.20;70.20;;;;;;5087139;28;43398;-69
2022/07/13 12:03:32;;;;;;;1.30;1.30;;;23.30;70.00;;;;;;5081053;28;43822;-69
2022/07/13 12:06:03;;;;;;;1.07;1.07;;;23.40;69.70;;;;;;5073946;28;43971;-70
2022/07/13 12:08:33;;;;;;;1.13;1.13;;;23.50;69.30;;;;;;5087108;28;44004;-69
2022/07/13 12:11:03;;;;;;;1.10;1.10;;;23.60;68.80;;;;;;5087371;28;43900;-70
2022/07/13 12:13:33;;;;;;;1.33;1.10;;;23.80;68.40;;;;;;5087449;27;43911;-69
2022/07/13 12:16:01;;;;;;;1.00;1.00;;;23.90;68.00;;;;;;5086722;28;44141;-70
2022/07/13 12:18:29;;;;;;;1.17;1.17;;;24.00;67.80;;;;;;5086633;27;43953;-69
2022/07/13 12:20:58;;;;;;;1.00;1.00;;;24.10;67.40;;;;;;5087016;27;43408;-69
2022/07/13 12:23:31;;;;;;;1.10;1.10;;;24.20;67.20;;;;;;5087238;28;43923;-70
2022/07/13 12:26:07;;;;;;;1.10;1.10;;;24.30;66.90;;;;;;5081889;27;44062;-70
2022/07/13 12:28:38;;;;;;;1.10;1.10;;;24.30;66.60;;;;;;5086898;28;44188;-69
2022/07/13 12:31:08;;;;;;;0.83;0.83;;;24.30;66.70;;;;;;5056635;28;43988;-69
2022/07/13 12:33:42;;;;;;;1.00;1.00;;;24.10;67.00;;;;;;5067975;28;44093;-70
2022/07/13 12:36:11;;;;;;;1.00;1.00;;;24.00;67.20;;;;;;5086624;27;43968;-70
2022/07/13 12:39:00;;;;;;;0.90;0.90;;;23.90;67.40;;;;;;5086557;28;44474;-69
2022/07/13 12:41:30;;;;;;;1.10;1.10;;;23.70;67.60;;;;;;5086524;27;44036;-70
2022/07/13 12:43:59;;;;;;;1.00;1.00;;;23.60;67.90;;;;;;5069271;28;43983;-69
2022/07/13 12:46:29;;;;;;;0.90;0.90;;;23.50;68.20;;;;;;5066802;28;44965;-69
2022/07/13 12:49:01;;;;;;;1.07;1.07;;;23.40;68.40;;;;;;5066728;28;44009;-69
2022/07/13 12:51:49;;;;;;;0.90;0.90;;;23.30;68.60;;;;;;5067113;28;43998;-69
2022/07/13 12:54:34;;;;;;;1.10;1.10;;;23.30;68.80;;;;;;5067528;28;43362;-69
2022/07/13 12:57:07;;;;;;;1.10;1.10;;;23.20;68.90;;;;;;5066821;28;43865;-69
2022/07/13 12:59:36;;;;;;;0.83;0.83;;;23.20;69.00;;;;;;5066701;28;43963;-69
2022/07/13 13:02:04;;;;;;;1.00;1.00;;;23.20;69.10;;;;;;5067003;28;43906;-69
2022/07/13 13:04:32;;;;;;;1.00;1.00;;;23.20;69.10;;;;;;5085383;28;44061;-70
2022/07/13 13:07:00;;;;;;;1.00;1.00;;;23.20;69.20;;;;;;5086450;28;44018;-70
2022/07/13 13:09:29;;;;;;;0.90;0.90;;;23.20;69.20;;;;;;5084625;28;44268;-70
2022/07/13 13:11:57;;;;;;;1.00;1.00;;;23.10;69.10;;;;;;5074935;28;43975;-70